createdAt,value
2022-08-12T00:00:19.579Z,1.00
2022-08-12T00:06:01.794Z,0.85
2022-08-12T00:11:21.088Z,1.00
2022-08-12T00:16:41.836Z,0.80
2022-08-12T00:22:02.654Z,1.05
2022-08-12T00:27:27.406Z,1.00
2022-08-12T00:33:05.085Z,0.85
2022-08-12T00:38:25.387Z,0.93
2022-08-12T00:43:28.158Z,1.00
2022-08-12T00:48:31.774Z,0.88
2022-08-12T00:53:34.966Z,1.02
2022-08-12T00:58:46.226Z,0.80
2022-08-12T01:04:08.694Z,0.88
2022-08-12T01:09:29.112Z,0.80
2022-08-12T01:14:31.949Z,1.00
2022-08-12T01:19:34.064Z,1.17
2022-08-12T01:24:56.901Z,0.90
2022-08-12T01:30:00.621Z,0.70
2022-08-12T01:35:15.322Z,0.85
2022-08-12T01:40:34.880Z,0.73
2022-08-12T01:45:46.477Z,1.10
2022-08-12T01:50:51.059Z,1.17
2022-08-12T01:55:54.393Z,0.80
2022-08-12T02:01:01.411Z,0.90
2022-08-12T02:06:29.377Z,0.77
2022-08-12T02:11:40.052Z,0.85
2022-08-12T02:16:41.640Z,0.80
2022-08-12T02:22:07.596Z,0.88
2022-08-12T02:27:12.768Z,0.90
2022-08-12T02:32:15.197Z,0.73
2022-08-12T02:37:18.515Z,0.70
2022-08-12T02:42:23.797Z,0.60
2022-08-12T02:48:00.385Z,0.77
2022-08-12T02:52:53.295Z,0.70
2022-08-12T02:57:55.713Z,1.02
2022-08-12T03:03:04.697Z,1.13
2022-08-12T03:08:12.149Z,1.63
2022-08-12T03:13:26.489Z,1.98
2022-08-12T03:18:32.818Z,2.28
2022-08-12T03:23:40.240Z,1.70
2022-08-12T03:28:51.909Z,2.33
2022-08-12T03:34:03.112Z,1.15
2022-08-12T03:39:17.258Z,1.70
2022-08-12T03:44:57.773Z,1.20
2022-08-12T03:50:18.344Z,1.08
2022-08-12T03:55:38.635Z,1.05
2022-08-12T04:00:40.801Z,1.00
2022-08-12T04:05:55.592Z,0.80
2022-08-12T04:11:17.647Z,1.10
2022-08-12T04:16:20.812Z,1.15
2022-08-12T04:21:22.513Z,1.25
2022-08-12T04:26:24.193Z,1.70
2022-08-12T04:31:31.866Z,0.95
2022-08-12T04:36:35.125Z,1.20
2022-08-12T04:41:38.658Z,1.30
2022-08-12T04:46:59.215Z,1.48
2022-08-12T04:52:00.979Z,0.90
2022-08-12T04:57:04.182Z,1.13
2022-08-12T05:02:09.557Z,1.10
2022-08-12T05:07:19.164Z,0.90
2022-08-12T05:12:21.276Z,1.38
2022-08-12T05:17:27.266Z,0.90
2022-08-12T05:22:30.039Z,1.10
2022-08-12T05:27:31.765Z,1.00
2022-08-12T05:32:33.964Z,1.73
2022-08-12T05:37:35.700Z,1.00
2022-08-12T05:42:37.810Z,1.20
2022-08-12T05:47:53.139Z,1.98
2022-08-12T05:52:55.819Z,2.42
2022-08-12T05:57:58.202Z,1.30
2022-08-12T06:03:01.534Z,1.13
2022-08-12T06:08:06.463Z,1.20
2022-08-12T06:13:08.113Z,1.40
2022-08-12T06:18:14.096Z,1.23
2022-08-12T06:23:18.065Z,1.43
2022-08-12T06:28:21.221Z,1.40
2022-08-12T06:33:55.319Z,1.30
2022-08-12T06:38:47.759Z,1.33
2022-08-12T06:44:05.639Z,1.73
2022-08-12T06:49:13.265Z,1.85
2022-08-12T06:54:15.036Z,1.45
2022-08-12T06:59:35.622Z,1.67
2022-08-12T07:04:39.149Z,1.80
2022-08-12T07:10:01.131Z,1.60
2022-08-12T07:15:05.062Z,1.60
2022-08-12T07:20:29.505Z,1.63
2022-08-12T07:25:37.577Z,1.30
2022-08-12T07:30:45.021Z,1.48
2022-08-12T07:35:48.029Z,1.38
2022-08-12T07:40:52.844Z,1.23
2022-08-12T07:45:55.326Z,1.75
2022-08-12T07:50:57.150Z,1.40
2022-08-12T07:55:59.020Z,1.45
2022-08-12T08:01:02.097Z,1.20
2022-08-12T08:06:05.404Z,1.23
2022-08-12T08:11:25.365Z,1.52
2022-08-12T08:16:27.110Z,0.80
2022-08-12T08:21:29.478Z,1.50
2022-08-12T08:26:32.592Z,1.20
2022-08-12T08:31:45.471Z,1.33
2022-08-12T08:36:49.572Z,1.25
2022-08-12T08:42:17.009Z,1.40
2022-08-12T08:47:22.897Z,1.23
2022-08-12T08:52:45.500Z,1.20
2022-08-12T08:57:50.193Z,0.90
2022-08-12T09:02:58.583Z,1.00
2022-08-12T09:08:13.221Z,1.23
2022-08-12T09:13:29.294Z,1.20
2022-08-12T09:24:11.413Z,1.33
2022-08-12T09:29:16.624Z,1.08
2022-08-12T09:34:26.815Z,0.82
2022-08-12T09:40:01.798Z,0.70
2022-08-12T09:45:19.397Z,0.70
2022-08-12T09:50:26.280Z,0.63
2022-08-12T09:56:05.331Z,0.65
2022-08-12T10:00:53.091Z,0.68
2022-08-12T10:06:27.356Z,0.70
2022-08-12T10:12:07.722Z,1.20
2022-08-12T10:16:58.107Z,0.68
2022-08-12T10:22:01.627Z,0.73
2022-08-12T10:27:23.231Z,0.73
2022-08-12T10:32:44.243Z,0.88
2022-08-12T10:38:34.468Z,0.60
2022-08-12T10:43:27.195Z,0.50
2022-08-12T10:48:34.213Z,0.45
2022-08-12T10:53:45.883Z,0.50
2022-08-12T10:58:48.460Z,0.80
2022-08-12T11:04:23.171Z,0.50
2022-08-12T11:09:12.353Z,0.60
2022-08-12T11:14:49.311Z,0.60
2022-08-12T11:19:43.669Z,0.43
2022-08-12T11:24:51.547Z,0.65
2022-08-12T11:30:02.597Z,0.53
2022-08-12T11:35:11.595Z,0.50
2022-08-12T11:40:13.727Z,0.60
2022-08-12T11:45:16.498Z,0.50
2022-08-12T11:50:20.488Z,0.50
2022-08-12T11:55:23.299Z,0.65
2022-08-12T12:05:47.335Z,1.05
2022-08-12T12:10:50.428Z,0.43
2022-08-12T12:15:53.178Z,0.40
2022-08-12T12:21:00.233Z,0.70
2022-08-12T12:26:07.052Z,0.60
2022-08-12T12:31:14.777Z,0.60
2022-08-12T12:36:31.804Z,0.40
2022-08-12T12:42:42.726Z,0.50
2022-08-12T12:46:57.001Z,0.60
2022-08-12T12:52:18.850Z,0.50
2022-08-12T12:57:21.537Z,0.43
2022-08-12T13:02:40.294Z,0.43
2022-08-12T13:07:54.081Z,0.50
2022-08-12T13:12:57.469Z,0.60
2022-08-12T13:18:05.157Z,0.57
2022-08-12T13:23:36.814Z,0.63
2022-08-12T13:28:31.739Z,0.50
2022-08-12T13:34:33.986Z,0.50
2022-08-12T13:38:57.497Z,0.50
2022-08-12T13:44:00.643Z,0.57
2022-08-12T13:49:06.463Z,0.40
2022-08-12T13:54:13.855Z,0.65
2022-08-12T13:59:16.112Z,0.70
2022-08-12T14:04:18.176Z,0.47
2022-08-12T14:09:20.157Z,0.60
2022-08-12T14:14:21.809Z,0.60
2022-08-12T14:19:31.679Z,0.60
2022-08-12T14:24:40.053Z,0.50
2022-08-12T14:30:04.781Z,0.47
2022-08-12T14:35:09.262Z,0.40
2022-08-12T14:40:18.096Z,0.50
2022-08-12T14:45:22.758Z,0.60
2022-08-12T14:50:40.907Z,0.63
2022-08-12T15:01:29.657Z,0.60
2022-08-12T15:06:44.580Z,0.60
2022-08-12T15:12:03.442Z,0.52
2022-08-12T15:17:07.109Z,0.80
2022-08-12T15:22:37.443Z,0.65
2022-08-12T15:28:03.765Z,0.75
2022-08-12T15:32:53.563Z,0.40
2022-08-12T15:38:09.179Z,1.17
2022-08-12T15:43:51.704Z,0.55
2022-08-12T15:48:37.534Z,0.60
2022-08-12T15:53:57.533Z,0.40
2022-08-12T15:58:59.721Z,0.77
2022-08-12T16:04:01.521Z,0.45
2022-08-12T16:09:03.271Z,1.20
2022-08-12T16:14:09.639Z,0.60
2022-08-12T16:20:02.286Z,0.60
2022-08-12T16:24:39.035Z,0.60
2022-08-12T16:29:52.838Z,0.55
2022-08-12T16:34:56.539Z,0.50
2022-08-12T16:40:05.943Z,0.55
2022-08-12T16:45:10.577Z,0.60
2022-08-12T16:50:15.684Z,0.88
2022-08-12T16:55:18.658Z,0.75
2022-08-12T17:00:20.589Z,0.50
2022-08-12T17:05:31.299Z,1.17
2022-08-12T17:10:35.940Z,0.68
2022-08-12T17:15:57.612Z,0.68
2022-08-12T17:21:04.332Z,0.50
2022-08-12T17:26:07.290Z,0.80
2022-08-12T17:31:11.526Z,0.70
2022-08-12T17:36:13.224Z,0.50
2022-08-12T17:41:22.405Z,0.85
2022-08-12T17:46:32.234Z,0.90
2022-08-12T17:51:50.114Z,0.90
2022-08-12T17:56:53.752Z,1.35
2022-08-12T18:02:01.718Z,1.00
2022-08-12T18:07:08.431Z,0.88
2022-08-12T18:12:34.452Z,0.82
2022-08-12T18:17:40.985Z,1.30
2022-08-12T18:22:43.136Z,1.10
2022-08-12T18:27:47.051Z,0.90
2022-08-12T18:32:58.197Z,1.00
2022-08-12T18:38:04.954Z,1.02
2022-08-12T18:43:15.265Z,0.98
2022-08-12T18:48:19.299Z,0.82
2022-08-12T18:54:04.841Z,1.10
2022-08-12T18:58:59.705Z,1.05
2022-08-12T19:04:09.319Z,1.30
2022-08-12T19:09:14.687Z,0.95
2022-08-12T19:14:27.474Z,0.88
2022-08-12T19:19:37.359Z,1.00
2022-08-12T19:25:03.024Z,0.77
2022-08-12T19:30:09.226Z,1.05
2022-08-12T19:40:37.365Z,1.00
2022-08-12T19:45:48.489Z,1.00
2022-08-12T19:50:56.735Z,1.38
2022-08-12T19:55:58.948Z,1.33
2022-08-12T20:01:00.658Z,1.35
2022-08-12T20:06:11.116Z,1.08
2022-08-12T20:12:11.566Z,1.25
2022-08-12T20:16:57.398Z,1.33
2022-08-12T20:22:01.950Z,1.08
2022-08-12T20:27:29.320Z,1.10
2022-08-12T20:32:47.958Z,1.23
2022-08-12T20:38:06.457Z,0.90
2022-08-12T20:43:14.963Z,0.90
2022-08-12T20:48:25.163Z,1.10
2022-08-12T20:53:54.165Z,1.65
2022-08-12T20:58:53.065Z,1.02
2022-08-12T21:04:13.346Z,1.23
2022-08-12T21:09:17.491Z,1.13
2022-08-12T21:14:39.491Z,1.00
2022-08-12T21:19:52.044Z,1.00
2022-08-12T21:24:55.915Z,0.97
2022-08-12T21:29:59.317Z,1.13
2022-08-12T21:35:01.037Z,1.15
2022-08-12T21:40:13.403Z,1.15
2022-08-12T21:45:47.215Z,0.98
2022-08-12T21:50:39.640Z,1.10
2022-08-12T21:55:45.509Z,1.02
2022-08-12T22:00:48.005Z,1.00
2022-08-12T22:06:07.952Z,1.25
2022-08-12T22:11:21.509Z,1.25
2022-08-12T22:16:23.287Z,1.33
2022-08-12T22:21:48.339Z,1.30
2022-08-12T22:26:54.311Z,1.27
2022-08-12T22:31:57.925Z,1.60
2022-08-12T22:36:59.674Z,1.52
2022-08-12T22:42:20.245Z,1.42
2022-08-12T22:47:53.376Z,1.10
2022-08-12T22:53:17.487Z,1.38
2022-08-12T22:58:19.165Z,1.35
2022-08-12T23:03:48.314Z,1.30
2022-08-12T23:08:54.534Z,1.70
2022-08-12T23:14:01.691Z,1.17
2022-08-12T23:19:10.980Z,1.40
2022-08-12T23:24:22.094Z,1.30
2022-08-12T23:29:29.714Z,1.45
2022-08-12T23:34:37.062Z,1.80
2022-08-12T23:40:06.616Z,1.52
2022-08-12T23:45:03.604Z,1.52
2022-08-12T23:50:22.668Z,1.27
2022-08-12T23:55:29.084Z,1.27
